sensor_id;sensor_type;location;lat;lon;timestamp;P1;durP1;ratioP1;P2;durP2;ratioP2
17686;SDS011;8962;52.538;13.266;2024-03-29T00:01:26;3.00;;;0.90;;
17686;SDS011;8962;52.538;13.266;2024-03-29T00:03:53;1.80;;;0.90;;
17686;SDS011;8962;52.538;13.266;2024-03-29T00:06:20;1.92;;;0.90;;
17686;SDS011;8962;52.538;13.266;2024-03-29T00:08:46;3.95;;;1.27;;
17686;SDS011;8962;52.538;13.266;2024-03-29T00:11:12;2.60;;;0.80;;
17686;SDS011;8962;52.538;13.266;2024-03-29T00:13:38;2.58;;;1.05;;
17686;SDS011;8962;52.538;13.266;2024-03-29T00:16:06;2.08;;;0.90;;
17686;SDS011;8962;52.538;13.266;2024-03-29T00:18:33;1.92;;;0.95;;
17686;SDS011;8962;52.538;13.266;2024-03-29T00:21:00;1.52;;;0.80;;
17686;SDS011;8962;52.538;13.266;2024-03-29T00:23:26;3.25;;;1.05;;
17686;SDS011;8962;52.538;13.266;2024-03-29T00:25:54;5.95;;;1.10;;
17686;SDS011;8962;52.538;13.266;2024-03-29T00:28:21;2.35;;;0.98;;
17686;SDS011;8962;52.538;13.266;2024-03-29T00:30:47;1.73;;;1.00;;
17686;SDS011;8962;52.538;13.266;2024-03-29T00:33:17;2.65;;;0.85;;
17686;SDS011;8962;52.538;13.266;2024-03-29T00:35:43;2.75;;;1.00;;
17686;SDS011;8962;52.538;13.266;2024-03-29T00:38:11;3.58;;;0.88;;
17686;SDS011;8962;52.538;13.266;2024-03-29T00:40:41;1.70;;;1.10;;
17686;SDS011;8962;52.538;13.266;2024-03-29T00:43:07;2.42;;;1.00;;
17686;SDS011;8962;52.538;13.266;2024-03-29T00:45:33;4.15;;;1.00;;
17686;SDS011;8962;52.538;13.266;2024-03-29T00:48:01;2.22;;;1.00;;
17686;SDS011;8962;52.538;13.266;2024-03-29T00:50:29;2.92;;;1.00;;
17686;SDS011;8962;52.538;13.266;2024-03-29T00:52:55;2.47;;;1.40;;
17686;SDS011;8962;52.538;13.266;2024-03-29T00:55:21;3.42;;;1.20;;
17686;SDS011;8962;52.538;13.266;2024-03-29T00:57:48;2.40;;;1.30;;
17686;SDS011;8962;52.538;13.266;2024-03-29T01:00:14;4.43;;;1.40;;
17686;SDS011;8962;52.538;13.266;2024-03-29T01:02:40;3.92;;;1.45;;
17686;SDS011;8962;52.538;13.266;2024-03-29T01:05:07;2.70;;;1.33;;
17686;SDS011;8962;52.538;13.266;2024-03-29T01:07:39;1.60;;;1.08;;
17686;SDS011;8962;52.538;13.266;2024-03-29T01:10:06;2.47;;;1.13;;
17686;SDS011;8962;52.538;13.266;2024-03-29T01:12:34;3.78;;;1.38;;
17686;SDS011;8962;52.538;13.266;2024-03-29T01:15:00;2.25;;;1.25;;
17686;SDS011;8962;52.538;13.266;2024-03-29T01:17:29;3.40;;;1.17;;
17686;SDS011;8962;52.538;13.266;2024-03-29T01:19:56;4.45;;;1.30;;
17686;SDS011;8962;52.538;13.266;2024-03-29T01:22:22;2.80;;;1.08;;
17686;SDS011;8962;52.538;13.266;2024-03-29T01:24:53;2.42;;;1.20;;
17686;SDS011;8962;52.538;13.266;2024-03-29T01:27:20;4.82;;;1.50;;
17686;SDS011;8962;52.538;13.266;2024-03-29T01:29:46;4.78;;;1.60;;
17686;SDS011;8962;52.538;13.266;2024-03-29T01:32:12;3.00;;;1.58;;
17686;SDS011;8962;52.538;13.266;2024-03-29T01:34:39;3.97;;;1.85;;
17686;SDS011;8962;52.538;13.266;2024-03-29T01:37:05;3.35;;;1.60;;
17686;SDS011;8962;52.538;13.266;2024-03-29T01:39:31;2.95;;;1.50;;
17686;SDS011;8962;52.538;13.266;2024-03-29T01:41:59;3.63;;;1.55;;
17686;SDS011;8962;52.538;13.266;2024-03-29T01:44:25;2.15;;;1.58;;
17686;SDS011;8962;52.538;13.266;2024-03-29T01:46:52;1.90;;;1.20;;
17686;SDS011;8962;52.538;13.266;2024-03-29T01:49:19;3.47;;;1.67;;
17686;SDS011;8962;52.538;13.266;2024-03-29T01:51:46;4.47;;;1.52;;
17686;SDS011;8962;52.538;13.266;2024-03-29T01:54:14;2.45;;;1.30;;
17686;SDS011;8962;52.538;13.266;2024-03-29T01:56:42;3.40;;;1.88;;
17686;SDS011;8962;52.538;13.266;2024-03-29T01:59:12;5.18;;;2.10;;
17686;SDS011;8962;52.538;13.266;2024-03-29T02:01:41;3.63;;;1.70;;
17686;SDS011;8962;52.538;13.266;2024-03-29T02:04:10;2.85;;;1.45;;
17686;SDS011;8962;52.538;13.266;2024-03-29T02:06:37;6.88;;;2.08;;
17686;SDS011;8962;52.538;13.266;2024-03-29T02:09:04;3.70;;;2.00;;
17686;SDS011;8962;52.538;13.266;2024-03-29T02:11:32;3.22;;;1.90;;
17686;SDS011;8962;52.538;13.266;2024-03-29T02:14:00;3.08;;;2.00;;
17686;SDS011;8962;52.538;13.266;2024-03-29T02:16:29;5.30;;;2.10;;
17686;SDS011;8962;52.538;13.266;2024-03-29T02:18:56;3.28;;;1.88;;
17686;SDS011;8962;52.538;13.266;2024-03-29T02:21:23;4.35;;;2.22;;
17686;SDS011;8962;52.538;13.266;2024-03-29T02:23:58;5.03;;;1.70;;
17686;SDS011;8962;52.538;13.266;2024-03-29T02:26:27;3.53;;;2.17;;
17686;SDS011;8962;52.538;13.266;2024-03-29T02:28:58;4.22;;;2.20;;
17686;SDS011;8962;52.538;13.266;2024-03-29T02:31:25;5.72;;;2.20;;
17686;SDS011;8962;52.538;13.266;2024-03-29T02:33:53;3.30;;;2.20;;
17686;SDS011;8962;52.538;13.266;2024-03-29T02:36:23;5.68;;;2.30;;
17686;SDS011;8962;52.538;13.266;2024-03-29T02:38:50;5.07;;;2.10;;
17686;SDS011;8962;52.538;13.266;2024-03-29T02:41:19;6.25;;;2.58;;
17686;SDS011;8962;52.538;13.266;2024-03-29T02:43:48;7.15;;;2.40;;
17686;SDS011;8962;52.538;13.266;2024-03-29T02:46:16;4.90;;;2.22;;
17686;SDS011;8962;52.538;13.266;2024-03-29T02:48:43;4.10;;;2.30;;
17686;SDS011;8962;52.538;13.266;2024-03-29T02:51:09;6.25;;;2.55;;
17686;SDS011;8962;52.538;13.266;2024-03-29T02:53:36;4.00;;;2.35;;
17686;SDS011;8962;52.538;13.266;2024-03-29T02:56:04;4.28;;;2.10;;
17686;SDS011;8962;52.538;13.266;2024-03-29T02:58:34;3.67;;;1.88;;
17686;SDS011;8962;52.538;13.266;2024-03-29T03:01:05;4.90;;;2.70;;
17686;SDS011;8962;52.538;13.266;2024-03-29T03:03:32;4.45;;;2.20;;
17686;SDS011;8962;52.538;13.266;2024-03-29T03:05:59;5.10;;;2.50;;
17686;SDS011;8962;52.538;13.266;2024-03-29T03:08:27;4.53;;;2.50;;
17686;SDS011;8962;52.538;13.266;2024-03-29T03:11:11;6.28;;;1.95;;
17686;SDS011;8962;52.538;13.266;2024-03-29T03:13:40;4.75;;;2.42;;
17686;SDS011;8962;52.538;13.266;2024-03-29T03:16:07;4.13;;;2.10;;
17686;SDS011;8962;52.538;13.266;2024-03-29T03:18:34;6.07;;;2.40;;
17686;SDS011;8962;52.538;13.266;2024-03-29T03:21:02;3.17;;;2.13;;
17686;SDS011;8962;52.538;13.266;2024-03-29T03:23:28;4.00;;;2.42;;
17686;SDS011;8962;52.538;13.266;2024-03-29T03:25:55;4.05;;;2.30;;
17686;SDS011;8962;52.538;13.266;2024-03-29T03:28:22;5.35;;;2.47;;
17686;SDS011;8962;52.538;13.266;2024-03-29T03:30:51;7.00;;;2.13;;
17686;SDS011;8962;52.538;13.266;2024-03-29T03:33:18;5.65;;;2.30;;
17686;SDS011;8962;52.538;13.266;2024-03-29T03:35:47;5.07;;;2.30;;
17686;SDS011;8962;52.538;13.266;2024-03-29T03:38:13;4.93;;;2.53;;
17686;SDS011;8962;52.538;13.266;2024-03-29T03:40:40;3.70;;;2.30;;
17686;SDS011;8962;52.538;13.266;2024-03-29T03:43:07;5.47;;;2.30;;
17686;SDS011;8962;52.538;13.266;2024-03-29T03:45:35;5.90;;;2.50;;
17686;SDS011;8962;52.538;13.266;2024-03-29T03:48:03;6.93;;;2.80;;
17686;SDS011;8962;52.538;13.266;2024-03-29T03:50:32;6.38;;;2.83;;
17686;SDS011;8962;52.538;13.266;2024-03-29T03:53:01;4.85;;;2.40;;
17686;SDS011;8962;52.538;13.266;2024-03-29T03:55:29;6.55;;;2.42;;
17686;SDS011;8962;52.538;13.266;2024-03-29T03:57:55;4.85;;;2.40;;
17686;SDS011;8962;52.538;13.266;2024-03-29T04:00:23;6.30;;;2.50;;
17686;SDS011;8962;52.538;13.266;2024-03-29T04:02:50;4.55;;;2.15;;
17686;SDS011;8962;52.538;13.266;2024-03-29T04:05:21;2.67;;;1.90;;
17686;SDS011;8962;52.538;13.266;2024-03-29T04:07:47;3.97;;;2.00;;
17686;SDS011;8962;52.538;13.266;2024-03-29T04:10:14;4.03;;;2.38;;
17686;SDS011;8962;52.538;13.266;2024-03-29T04:12:42;4.32;;;2.05;;
17686;SDS011;8962;52.538;13.266;2024-03-29T04:15:09;7.50;;;2.60;;
17686;SDS011;8962;52.538;13.266;2024-03-29T04:17:35;4.05;;;2.05;;
17686;SDS011;8962;52.538;13.266;2024-03-29T04:20:03;3.75;;;2.13;;
17686;SDS011;8962;52.538;13.266;2024-03-29T04:22:31;4.60;;;2.65;;
17686;SDS011;8962;52.538;13.266;2024-03-29T04:24:58;5.00;;;2.20;;
17686;SDS011;8962;52.538;13.266;2024-03-29T04:27:26;2.67;;;2.13;;
17686;SDS011;8962;52.538;13.266;2024-03-29T04:29:54;5.32;;;2.03;;
17686;SDS011;8962;52.538;13.266;2024-03-29T04:32:21;3.13;;;1.95;;
17686;SDS011;8962;52.538;13.266;2024-03-29T04:34:48;4.45;;;2.40;;
17686;SDS011;8962;52.538;13.266;2024-03-29T04:37:15;2.95;;;1.77;;
17686;SDS011;8962;52.538;13.266;2024-03-29T04:39:45;2.88;;;1.80;;
17686;SDS011;8962;52.538;13.266;2024-03-29T04:42:13;3.60;;;2.00;;
17686;SDS011;8962;52.538;13.266;2024-03-29T04:44:41;6.60;;;1.88;;
17686;SDS011;8962;52.538;13.266;2024-03-29T04:47:09;3.72;;;1.88;;
17686;SDS011;8962;52.538;13.266;2024-03-29T04:49:37;4.47;;;1.98;;
17686;SDS011;8962;52.538;13.266;2024-03-29T04:52:04;4.90;;;1.88;;
17686;SDS011;8962;52.538;13.266;2024-03-29T04:54:33;6.38;;;1.80;;
17686;SDS011;8962;52.538;13.266;2024-03-29T04:57:03;3.83;;;1.92;;
17686;SDS011;8962;52.538;13.266;2024-03-29T04:59:31;4.88;;;1.73;;
17686;SDS011;8962;52.538;13.266;2024-03-29T05:01:59;6.03;;;1.70;;
17686;SDS011;8962;52.538;13.266;2024-03-29T05:04:29;2.38;;;1.60;;
17686;SDS011;8962;52.538;13.266;2024-03-29T05:06:56;2.22;;;1.48;;
17686;SDS011;8962;52.538;13.266;2024-03-29T05:09:25;3.15;;;1.52;;
17686;SDS011;8962;52.538;13.266;2024-03-29T05:11:52;7.13;;;1.55;;
17686;SDS011;8962;52.538;13.266;2024-03-29T05:14:21;2.85;;;1.42;;
17686;SDS011;8962;52.538;13.266;2024-03-29T05:16:49;4.60;;;1.83;;
17686;SDS011;8962;52.538;13.266;2024-03-29T05:19:16;2.42;;;1.45;;
17686;SDS011;8962;52.538;13.266;2024-03-29T05:21:43;3.03;;;1.63;;
17686;SDS011;8962;52.538;13.266;2024-03-29T05:24:11;2.08;;;1.40;;
17686;SDS011;8962;52.538;13.266;2024-03-29T05:26:38;4.40;;;1.50;;
17686;SDS011;8962;52.538;13.266;2024-03-29T05:29:06;2.30;;;1.30;;
17686;SDS011;8962;52.538;13.266;2024-03-29T05:31:34;4.78;;;1.67;;
17686;SDS011;8962;52.538;13.266;2024-03-29T05:34:02;3.67;;;1.52;;
17686;SDS011;8962;52.538;13.266;2024-03-29T05:36:29;2.95;;;1.60;;
17686;SDS011;8962;52.538;13.266;2024-03-29T05:38:57;2.35;;;1.20;;
17686;SDS011;8962;52.538;13.266;2024-03-29T05:41:28;4.35;;;1.48;;
17686;SDS011;8962;52.538;13.266;2024-03-29T05:43:57;5.32;;;1.40;;
17686;SDS011;8962;52.538;13.266;2024-03-29T05:46:24;3.63;;;1.58;;
17686;SDS011;8962;52.538;13.266;2024-03-29T05:48:53;4.88;;;1.60;;
17686;SDS011;8962;52.538;13.266;2024-03-29T05:51:20;2.67;;;1.40;;
17686;SDS011;8962;52.538;13.266;2024-03-29T05:53:48;3.80;;;1.40;;
17686;SDS011;8962;52.538;13.266;2024-03-29T05:56:19;2.70;;;1.33;;
17686;SDS011;8962;52.538;13.266;2024-03-29T05:58:58;3.03;;;1.58;;
17686;SDS011;8962;52.538;13.266;2024-03-29T06:01:25;4.45;;;1.48;;
17686;SDS011;8962;52.538;13.266;2024-03-29T06:03:54;4.60;;;1.40;;
17686;SDS011;8962;52.538;13.266;2024-03-29T06:06:24;5.88;;;1.42;;
17686;SDS011;8962;52.538;13.266;2024-03-29T06:08:52;3.58;;;1.30;;
17686;SDS011;8962;52.538;13.266;2024-03-29T06:11:21;3.88;;;1.60;;
17686;SDS011;8962;52.538;13.266;2024-03-29T06:13:49;3.88;;;1.35;;
17686;SDS011;8962;52.538;13.266;2024-03-29T06:16:33;3.30;;;1.60;;
17686;SDS011;8962;52.538;13.266;2024-03-29T06:19:19;3.20;;;1.45;;
17686;SDS011;8962;52.538;13.266;2024-03-29T06:21:46;3.13;;;1.30;;
17686;SDS011;8962;52.538;13.266;2024-03-29T06:24:14;6.00;;;1.45;;
17686;SDS011;8962;52.538;13.266;2024-03-29T06:26:45;4.55;;;1.38;;
17686;SDS011;8962;52.538;13.266;2024-03-29T06:29:12;6.72;;;1.80;;
17686;SDS011;8962;52.538;13.266;2024-03-29T06:31:40;3.13;;;1.25;;
17686;SDS011;8962;52.538;13.266;2024-03-29T06:34:08;2.97;;;1.60;;
17686;SDS011;8962;52.538;13.266;2024-03-29T06:36:37;5.78;;;1.50;;
17686;SDS011;8962;52.538;13.266;2024-03-29T06:39:04;6.10;;;1.48;;
17686;SDS011;8962;52.538;13.266;2024-03-29T06:41:33;3.38;;;1.30;;
17686;SDS011;8962;52.538;13.266;2024-03-29T06:44:00;4.88;;;1.40;;
17686;SDS011;8962;52.538;13.266;2024-03-29T06:46:29;2.85;;;1.60;;
17686;SDS011;8962;52.538;13.266;2024-03-29T06:48:57;3.63;;;1.60;;
17686;SDS011;8962;52.538;13.266;2024-03-29T06:51:24;4.57;;;1.50;;
17686;SDS011;8962;52.538;13.266;2024-03-29T06:53:53;4.38;;;1.50;;
17686;SDS011;8962;52.538;13.266;2024-03-29T06:56:22;2.25;;;1.48;;
17686;SDS011;8962;52.538;13.266;2024-03-29T06:58:49;5.20;;;1.50;;
17686;SDS011;8962;52.538;13.266;2024-03-29T07:01:17;2.92;;;1.48;;
17686;SDS011;8962;52.538;13.266;2024-03-29T07:03:45;2.35;;;1.23;;
17686;SDS011;8962;52.538;13.266;2024-03-29T07:06:12;4.78;;;1.40;;
17686;SDS011;8962;52.538;13.266;2024-03-29T07:08:39;2.50;;;1.50;;
17686;SDS011;8962;52.538;13.266;2024-03-29T07:11:08;3.97;;;1.70;;
17686;SDS011;8962;52.538;13.266;2024-03-29T07:13:36;5.47;;;2.03;;
17686;SDS011;8962;52.538;13.266;2024-03-29T07:16:03;4.78;;;1.88;;
17686;SDS011;8962;52.538;13.266;2024-03-29T07:18:32;4.78;;;1.90;;
17686;SDS011;8962;52.538;13.266;2024-03-29T07:23:35;5.13;;;1.63;;
17686;SDS011;8962;52.538;13.266;2024-03-29T07:26:03;2.58;;;1.30;;
17686;SDS011;8962;52.538;13.266;2024-03-29T07:28:32;5.00;;;1.70;;
17686;SDS011;8962;52.538;13.266;2024-03-29T07:31:04;3.92;;;1.50;;
17686;SDS011;8962;52.538;13.266;2024-03-29T07:33:32;3.65;;;1.52;;
17686;SDS011;8962;52.538;13.266;2024-03-29T07:36:00;5.03;;;1.73;;
17686;SDS011;8962;52.538;13.266;2024-03-29T07:38:31;3.05;;;1.50;;
17686;SDS011;8962;52.538;13.266;2024-03-29T07:40:58;2.33;;;1.50;;
17686;SDS011;8962;52.538;13.266;2024-03-29T07:43:25;2.35;;;1.30;;
17686;SDS011;8962;52.538;13.266;2024-03-29T07:45:54;4.03;;;1.27;;
17686;SDS011;8962;52.538;13.266;2024-03-29T07:48:21;3.28;;;1.50;;
17686;SDS011;8962;52.538;13.266;2024-03-29T07:50:49;4.93;;;1.30;;
17686;SDS011;8962;52.538;13.266;2024-03-29T07:53:17;4.63;;;1.83;;
17686;SDS011;8962;52.538;13.266;2024-03-29T07:55:44;5.30;;;1.48;;
17686;SDS011;8962;52.538;13.266;2024-03-29T07:58:11;4.15;;;1.30;;
17686;SDS011;8962;52.538;13.266;2024-03-29T08:00:39;3.40;;;1.35;;
17686;SDS011;8962;52.538;13.266;2024-03-29T08:03:09;5.13;;;1.42;;
17686;SDS011;8962;52.538;13.266;2024-03-29T08:05:36;1.98;;;1.20;;
17686;SDS011;8962;52.538;13.266;2024-03-29T08:08:03;4.43;;;1.55;;
17686;SDS011;8962;52.538;13.266;2024-03-29T08:10:31;3.72;;;2.00;;
17686;SDS011;8962;52.538;13.266;2024-03-29T08:12:58;7.13;;;1.60;;
17686;SDS011;8962;52.538;13.266;2024-03-29T08:15:26;3.88;;;1.90;;
17686;SDS011;8962;52.538;13.266;2024-03-29T08:17:53;2.40;;;1.30;;
17686;SDS011;8962;52.538;13.266;2024-03-29T08:20:22;2.30;;;1.50;;
17686;SDS011;8962;52.538;13.266;2024-03-29T08:22:54;4.60;;;1.60;;
17686;SDS011;8962;52.538;13.266;2024-03-29T08:25:24;5.63;;;1.70;;
17686;SDS011;8962;52.538;13.266;2024-03-29T08:27:52;3.33;;;1.77;;
17686;SDS011;8962;52.538;13.266;2024-03-29T08:30:23;3.55;;;1.70;;
17686;SDS011;8962;52.538;13.266;2024-03-29T08:32:51;4.82;;;1.60;;
17686;SDS011;8962;52.538;13.266;2024-03-29T08:35:18;4.13;;;2.17;;
17686;SDS011;8962;52.538;13.266;2024-03-29T08:37:49;3.08;;;1.40;;
17686;SDS011;8962;52.538;13.266;2024-03-29T08:40:16;2.83;;;1.48;;
17686;SDS011;8962;52.538;13.266;2024-03-29T08:42:44;5.00;;;1.58;;
17686;SDS011;8962;52.538;13.266;2024-03-29T08:45:13;6.05;;;1.40;;
17686;SDS011;8962;52.538;13.266;2024-03-29T08:47:40;2.25;;;1.25;;
17686;SDS011;8962;52.538;13.266;2024-03-29T08:50:08;5.25;;;1.70;;
17686;SDS011;8962;52.538;13.266;2024-03-29T08:52:36;4.28;;;1.70;;
17686;SDS011;8962;52.538;13.266;2024-03-29T08:55:07;2.03;;;1.23;;
17686;SDS011;8962;52.538;13.266;2024-03-29T08:57:35;3.67;;;1.30;;
17686;SDS011;8962;52.538;13.266;2024-03-29T09:00:04;3.67;;;1.70;;
17686;SDS011;8962;52.538;13.266;2024-03-29T09:02:33;3.38;;;1.40;;
17686;SDS011;8962;52.538;13.266;2024-03-29T09:05:00;3.72;;;1.52;;
17686;SDS011;8962;52.538;13.266;2024-03-29T09:07:28;5.97;;;1.90;;
17686;SDS011;8962;52.538;13.266;2024-03-29T09:09:55;4.43;;;1.70;;
17686;SDS011;8962;52.538;13.266;2024-03-29T09:12:26;2.70;;;1.50;;
17686;SDS011;8962;52.538;13.266;2024-03-29T09:14:56;4.80;;;1.90;;
17686;SDS011;8962;52.538;13.266;2024-03-29T09:17:26;3.17;;;1.20;;
17686;SDS011;8962;52.538;13.266;2024-03-29T09:19:56;2.15;;;1.15;;
17686;SDS011;8962;52.538;13.266;2024-03-29T09:22:24;4.35;;;1.20;;
17686;SDS011;8962;52.538;13.266;2024-03-29T09:24:52;4.47;;;1.50;;
17686;SDS011;8962;52.538;13.266;2024-03-29T09:27:23;4.60;;;1.30;;
17686;SDS011;8962;52.538;13.266;2024-03-29T09:29:52;4.30;;;1.67;;
17686;SDS011;8962;52.538;13.266;2024-03-29T09:32:19;2.17;;;1.30;;
17686;SDS011;8962;52.538;13.266;2024-03-29T09:34:49;2.50;;;1.40;;
17686;SDS011;8962;52.538;13.266;2024-03-29T09:37:17;2.83;;;1.38;;
17686;SDS011;8962;52.538;13.266;2024-03-29T09:39:45;3.53;;;1.40;;
17686;SDS011;8962;52.538;13.266;2024-03-29T09:42:13;5.00;;;1.60;;
17686;SDS011;8962;52.538;13.266;2024-03-29T09:44:43;1.92;;;1.10;;
17686;SDS011;8962;52.538;13.266;2024-03-29T09:47:16;3.22;;;1.25;;
17686;SDS011;8962;52.538;13.266;2024-03-29T09:49:44;3.53;;;1.30;;
17686;SDS011;8962;52.538;13.266;2024-03-29T09:52:13;2.33;;;1.13;;
17686;SDS011;8962;52.538;13.266;2024-03-29T09:54:41;2.33;;;1.27;;
17686;SDS011;8962;52.538;13.266;2024-03-29T09:57:08;2.00;;;1.10;;
17686;SDS011;8962;52.538;13.266;2024-03-29T09:59:53;3.30;;;1.40;;
17686;SDS011;8962;52.538;13.266;2024-03-29T10:02:22;2.72;;;1.40;;
17686;SDS011;8962;52.538;13.266;2024-03-29T10:04:54;2.08;;;1.27;;
17686;SDS011;8962;52.538;13.266;2024-03-29T10:07:23;3.00;;;1.23;;
17686;SDS011;8962;52.538;13.266;2024-03-29T10:09:51;4.85;;;2.15;;
17686;SDS011;8962;52.538;13.266;2024-03-29T10:12:20;4.10;;;1.50;;
17686;SDS011;8962;52.538;13.266;2024-03-29T10:14:48;1.67;;;1.15;;
17686;SDS011;8962;52.538;13.266;2024-03-29T10:17:18;3.47;;;1.35;;
17686;SDS011;8962;52.538;13.266;2024-03-29T10:19:49;6.78;;;1.80;;
17686;SDS011;8962;52.538;13.266;2024-03-29T10:22:16;4.80;;;2.65;;
17686;SDS011;8962;52.538;13.266;2024-03-29T10:24:44;5.50;;;2.78;;
17686;SDS011;8962;52.538;13.266;2024-03-29T10:27:13;4.32;;;1.90;;
17686;SDS011;8962;52.538;13.266;2024-03-29T10:29:40;4.38;;;2.35;;
17686;SDS011;8962;52.538;13.266;2024-03-29T10:32:07;2.75;;;1.85;;
17686;SDS011;8962;52.538;13.266;2024-03-29T10:34:35;3.40;;;1.77;;
17686;SDS011;8962;52.538;13.266;2024-03-29T10:37:04;2.75;;;1.40;;
17686;SDS011;8962;52.538;13.266;2024-03-29T10:39:31;2.75;;;1.20;;
17686;SDS011;8962;52.538;13.266;2024-03-29T10:41:59;3.60;;;1.40;;
17686;SDS011;8962;52.538;13.266;2024-03-29T10:44:28;3.28;;;1.58;;
17686;SDS011;8962;52.538;13.266;2024-03-29T10:46:56;3.45;;;1.50;;
17686;SDS011;8962;52.538;13.266;2024-03-29T10:49:24;1.70;;;1.13;;
17686;SDS011;8962;52.538;13.266;2024-03-29T10:51:51;2.50;;;1.27;;
17686;SDS011;8962;52.538;13.266;2024-03-29T10:54:23;2.38;;;1.23;;
17686;SDS011;8962;52.538;13.266;2024-03-29T10:56:59;5.53;;;1.42;;
17686;SDS011;8962;52.538;13.266;2024-03-29T10:59:39;2.20;;;1.20;;
17686;SDS011;8962;52.538;13.266;2024-03-29T11:02:12;4.88;;;1.30;;
17686;SDS011;8962;52.538;13.266;2024-03-29T11:04:43;3.55;;;1.50;;
17686;SDS011;8962;52.538;13.266;2024-03-29T11:07:13;5.65;;;2.70;;
17686;SDS011;8962;52.538;13.266;2024-03-29T11:09:49;11.57;;;5.22;;
17686;SDS011;8962;52.538;13.266;2024-03-29T11:12:22;3.50;;;2.20;;
17686;SDS011;8962;52.538;13.266;2024-03-29T11:14:53;1.85;;;1.30;;
17686;SDS011;8962;52.538;13.266;2024-03-29T11:17:28;2.85;;;1.50;;
17686;SDS011;8962;52.538;13.266;2024-03-29T11:19:57;2.30;;;1.40;;
17686;SDS011;8962;52.538;13.266;2024-03-29T11:22:25;1.73;;;1.20;;
17686;SDS011;8962;52.538;13.266;2024-03-29T11:24:54;2.80;;;1.40;;
17686;SDS011;8962;52.538;13.266;2024-03-29T11:27:22;3.78;;;1.65;;
17686;SDS011;8962;52.538;13.266;2024-03-29T11:29:49;3.50;;;1.42;;
17686;SDS011;8962;52.538;13.266;2024-03-29T11:32:33;1.77;;;1.23;;
17686;SDS011;8962;52.538;13.266;2024-03-29T11:35:00;2.53;;;1.17;;
17686;SDS011;8962;52.538;13.266;2024-03-29T11:37:29;2.22;;;1.40;;
17686;SDS011;8962;52.538;13.266;2024-03-29T11:39:59;1.73;;;1.20;;
17686;SDS011;8962;52.538;13.266;2024-03-29T11:42:37;2.42;;;1.38;;
17686;SDS011;8962;52.538;13.266;2024-03-29T11:45:11;3.28;;;1.40;;
17686;SDS011;8962;52.538;13.266;2024-03-29T11:47:39;2.90;;;1.35;;
17686;SDS011;8962;52.538;13.266;2024-03-29T11:50:07;1.75;;;1.00;;
17686;SDS011;8962;52.538;13.266;2024-03-29T11:52:37;4.20;;;1.10;;
17686;SDS011;8962;52.538;13.266;2024-03-29T11:55:07;4.25;;;1.30;;
17686;SDS011;8962;52.538;13.266;2024-03-29T11:57:34;1.73;;;1.15;;
17686;SDS011;8962;52.538;13.266;2024-03-29T12:00:05;2.78;;;1.50;;
17686;SDS011;8962;52.538;13.266;2024-03-29T12:02:35;2.60;;;1.50;;
17686;SDS011;8962;52.538;13.266;2024-03-29T12:05:05;2.40;;;1.60;;
17686;SDS011;8962;52.538;13.266;2024-03-29T12:07:42;4.00;;;2.10;;
17686;SDS011;8962;52.538;13.266;2024-03-29T12:10:15;3.20;;;1.70;;
17686;SDS011;8962;52.538;13.266;2024-03-29T12:12:44;4.70;;;1.67;;
17686;SDS011;8962;52.538;13.266;2024-03-29T12:15:12;6.40;;;3.28;;
17686;SDS011;8962;52.538;13.266;2024-03-29T12:17:40;3.15;;;2.05;;
17686;SDS011;8962;52.538;13.266;2024-03-29T12:20:14;3.50;;;1.48;;
17686;SDS011;8962;52.538;13.266;2024-03-29T12:22:45;3.40;;;2.08;;
17686;SDS011;8962;52.538;13.266;2024-03-29T12:25:14;3.67;;;1.70;;
17686;SDS011;8962;52.538;13.266;2024-03-29T12:27:44;3.78;;;2.50;;
17686;SDS011;8962;52.538;13.266;2024-03-29T12:30:12;2.70;;;1.90;;
17686;SDS011;8962;52.538;13.266;2024-03-29T12:32:46;2.20;;;1.30;;
17686;SDS011;8962;52.538;13.266;2024-03-29T12:35:14;2.25;;;1.30;;
17686;SDS011;8962;52.538;13.266;2024-03-29T12:37:48;1.73;;;1.20;;
17686;SDS011;8962;52.538;13.266;2024-03-29T12:40:18;3.22;;;1.50;;
17686;SDS011;8962;52.538;13.266;2024-03-29T12:42:47;4.47;;;1.48;;
17686;SDS011;8962;52.538;13.266;2024-03-29T12:45:18;4.97;;;3.17;;
17686;SDS011;8962;52.538;13.266;2024-03-29T12:47:46;2.88;;;1.80;;
17686;SDS011;8962;52.538;13.266;2024-03-29T12:50:14;8.40;;;3.00;;
17686;SDS011;8962;52.538;13.266;2024-03-29T12:52:50;11.25;;;5.00;;
17686;SDS011;8962;52.538;13.266;2024-03-29T12:55:22;5.22;;;2.40;;
17686;SDS011;8962;52.538;13.266;2024-03-29T12:57:50;7.20;;;4.32;;
17686;SDS011;8962;52.538;13.266;2024-03-29T13:00:19;8.32;;;4.72;;
17686;SDS011;8962;52.538;13.266;2024-03-29T13:02:46;7.72;;;4.72;;
17686;SDS011;8962;52.538;13.266;2024-03-29T13:05:13;6.50;;;3.95;;
17686;SDS011;8962;52.538;13.266;2024-03-29T13:07:41;6.75;;;2.83;;
17686;SDS011;8962;52.538;13.266;2024-03-29T13:10:08;4.97;;;2.70;;
17686;SDS011;8962;52.538;13.266;2024-03-29T13:12:40;2.90;;;1.65;;
17686;SDS011;8962;52.538;13.266;2024-03-29T13:15:15;3.97;;;1.60;;
17686;SDS011;8962;52.538;13.266;2024-03-29T13:17:44;2.60;;;1.42;;
17686;SDS011;8962;52.538;13.266;2024-03-29T13:20:12;2.17;;;1.42;;
17686;SDS011;8962;52.538;13.266;2024-03-29T13:22:42;4.22;;;2.50;;
17686;SDS011;8962;52.538;13.266;2024-03-29T13:25:13;8.60;;;4.75;;
17686;SDS011;8962;52.538;13.266;2024-03-29T13:27:42;4.82;;;2.85;;
17686;SDS011;8962;52.538;13.266;2024-03-29T13:30:10;4.72;;;2.67;;
17686;SDS011;8962;52.538;13.266;2024-03-29T13:32:41;2.47;;;1.30;;
17686;SDS011;8962;52.538;13.266;2024-03-29T13:35:11;2.30;;;1.17;;
17686;SDS011;8962;52.538;13.266;2024-03-29T13:37:39;4.60;;;2.40;;
17686;SDS011;8962;52.538;13.266;2024-03-29T13:40:08;5.68;;;2.17;;
17686;SDS011;8962;52.538;13.266;2024-03-29T13:42:36;4.82;;;2.50;;
17686;SDS011;8962;52.538;13.266;2024-03-29T13:45:06;9.48;;;5.28;;
17686;SDS011;8962;52.538;13.266;2024-03-29T13:47:36;4.70;;;1.90;;
17686;SDS011;8962;52.538;13.266;2024-03-29T13:50:04;2.30;;;1.40;;
17686;SDS011;8962;52.538;13.266;2024-03-29T13:52:30;4.53;;;1.40;;
17686;SDS011;8962;52.538;13.266;2024-03-29T13:54:58;1.70;;;1.33;;
17686;SDS011;8962;52.538;13.266;2024-03-29T13:57:28;2.38;;;1.30;;
17686;SDS011;8962;52.538;13.266;2024-03-29T13:59:59;2.25;;;1.10;;
17686;SDS011;8962;52.538;13.266;2024-03-29T14:02:29;2.45;;;1.13;;
17686;SDS011;8962;52.538;13.266;2024-03-29T14:04:56;2.20;;;1.30;;
17686;SDS011;8962;52.538;13.266;2024-03-29T14:07:23;2.83;;;1.20;;
17686;SDS011;8962;52.538;13.266;2024-03-29T14:09:51;2.95;;;1.27;;
17686;SDS011;8962;52.538;13.266;2024-03-29T14:12:19;2.08;;;1.20;;
17686;SDS011;8962;52.538;13.266;2024-03-29T14:14:49;2.63;;;1.80;;
17686;SDS011;8962;52.538;13.266;2024-03-29T14:17:18;3.80;;;2.08;;
17686;SDS011;8962;52.538;13.266;2024-03-29T14:19:47;4.10;;;1.90;;
17686;SDS011;8962;52.538;13.266;2024-03-29T14:22:16;1.75;;;1.30;;
17686;SDS011;8962;52.538;13.266;2024-03-29T14:24:44;5.55;;;1.45;;
17686;SDS011;8962;52.538;13.266;2024-03-29T14:27:12;3.00;;;1.50;;
17686;SDS011;8962;52.538;13.266;2024-03-29T14:29:39;2.53;;;1.20;;
17686;SDS011;8962;52.538;13.266;2024-03-29T14:32:10;2.80;;;1.45;;
17686;SDS011;8962;52.538;13.266;2024-03-29T14:34:37;1.77;;;1.30;;
17686;SDS011;8962;52.538;13.266;2024-03-29T14:37:11;1.70;;;1.20;;
17686;SDS011;8962;52.538;13.266;2024-03-29T14:39:41;3.95;;;1.10;;
17686;SDS011;8962;52.538;13.266;2024-03-29T14:42:09;3.22;;;1.40;;
17686;SDS011;8962;52.538;13.266;2024-03-29T14:44:41;3.47;;;1.58;;
17686;SDS011;8962;52.538;13.266;2024-03-29T14:47:09;5.07;;;2.10;;
17686;SDS011;8962;52.538;13.266;2024-03-29T14:49:38;3.65;;;1.35;;
17686;SDS011;8962;52.538;13.266;2024-03-29T14:52:08;4.88;;;1.90;;
17686;SDS011;8962;52.538;13.266;2024-03-29T14:54:37;16.65;;;5.25;;
17686;SDS011;8962;52.538;13.266;2024-03-29T14:57:05;3.53;;;1.38;;
17686;SDS011;8962;52.538;13.266;2024-03-29T14:59:34;2.17;;;1.50;;